Time;durP1;ratioP1;P1;durP2;ratioP2;P2;SDS_P1;SDS_P2;PMS_P1;PMS_P2;Temp;Humidity;BMP_temperature;BMP_pressure;BME280_temperature;BME280_humidity;BME280_pressure;Samples;Min_cycle;Max_cycle;Signal;HPM_P1;HPM_P2
2022/04/23 00:00:50;;;;;;;13.20;8.50;;;13.60;99.90;;;;;;4886919;29;20116;-86
2022/04/23 00:03:20;;;;;;;10.02;8.18;;;13.70;99.90;;;;;;4874194;29;20048;-83
2022/04/23 00:05:48;;;;;;;15.80;8.73;;;13.70;99.90;;;;;;4884025;29;20084;-81
2022/04/23 00:08:15;;;;;;;13.70;8.80;;;13.60;99.90;;;;;;4893929;29;20055;-83
2022/04/23 00:10:42;;;;;;;13.35;7.35;;;13.60;99.90;;;;;;4888307;29;20504;-89
2022/04/23 00:13:10;;;;;;;11.32;7.80;;;13.70;99.90;;;;;;4873752;29;20057;-86
2022/04/23 00:15:39;;;;;;;16.15;7.93;;;13.70;99.90;;;;;;4887470;29;20042;-85
2022/04/23 00:18:47;;;;;;;12.90;8.52;;;13.70;99.90;;;;;;4891997;29;20113;-85
2022/04/23 00:21:15;;;;;;;13.02;8.13;;;13.50;99.90;;;;;;4855206;29;20048;-87
2022/04/23 00:23:50;;;;;;;13.50;7.60;;;13.60;99.90;;;;;;4849846;29;20051;-85
2022/04/23 00:26:20;;;;;;;12.52;7.13;;;13.50;99.90;;;;;;4864256;29;20073;-85
2022/04/23 00:28:48;;;;;;;12.57;8.30;;;13.40;99.90;;;;;;4866398;29;20064;-86
2022/04/23 00:31:15;;;;;;;14.48;8.82;;;13.20;99.90;;;;;;4880528;29;20041;-84
2022/04/23 00:33:43;;;;;;;17.42;10.05;;;13.00;99.90;;;;;;4870142;29;20056;-84
2022/04/23 00:36:11;;;;;;;11.80;8.82;;;13.10;99.90;;;;;;4885452;29;20058;-86
2022/04/23 00:38:42;;;;;;;19.73;10.98;;;13.30;99.90;;;;;;4886293;29;20388;-84
2022/04/23 00:41:43;;;;;;;21.60;11.32;;;12.70;99.90;;;;;;4864857;29;20429;-86
2022/04/23 00:44:03;;;;;;;21.70;11.10;;;12.50;99.90;;;;;;4869027;29;20065;-87
2022/04/23 00:46:30;;;;;;;17.00;10.60;;;12.90;99.90;;;;;;4869149;29;20065;-88
2022/04/23 00:49:23;;;;;;;14.50;10.43;;;13.10;99.90;;;;;;4855525;29;20063;-84
2022/04/23 00:56:10;;;;;;;16.23;9.70;;;12.90;99.90;;;;;;4775629;30;20412;-87
2022/04/23 00:59:04;;;;;;;11.13;8.65;;;12.80;99.90;;;;;;4759607;30;20055;-87
2022/04/23 01:04:34;;;;;;;14.07;9.13;;;13.00;99.90;;;;;;4802428;29;20062;-82
2022/04/23 01:07:06;;;;;;;13.20;8.45;;;13.00;99.90;;;;;;4768266;29;20042;-83
2022/04/23 01:09:34;;;;;;;13.75;9.00;;;13.10;99.90;;;;;;4872287;29;20455;-90
2022/04/23 01:12:25;;;;;;;11.95;8.80;;;13.10;99.90;;;;;;4796171;29;20084;-89
2022/04/23 01:15:27;;;;;;;13.32;8.27;;;12.90;99.90;;;;;;4841691;29;21850;-85
2022/04/23 01:17:55;;;;;;;10.50;8.00;;;13.10;99.90;;;;;;4887252;29;20108;-84
2022/04/23 01:20:24;;;;;;;11.45;8.50;;;13.20;99.90;;;;;;4878202;29;20041;-87
2022/04/23 01:23:14;;;;;;;14.65;8.48;;;13.30;99.90;;;;;;4876398;29;20048;-85
2022/04/23 01:25:41;;;;;;;13.38;8.98;;;13.20;99.90;;;;;;4886460;29;20388;-86
2022/04/23 01:28:10;;;;;;;14.77;8.23;;;13.20;99.90;;;;;;4874748;29;21608;-83
2022/04/23 01:30:37;;;;;;;13.63;8.32;;;13.30;99.90;;;;;;4871554;29;20104;-84
2022/04/23 01:33:05;;;;;;;13.00;8.13;;;13.10;99.90;;;;;;4870698;29;20057;-83
2022/04/23 01:35:33;;;;;;;13.80;8.52;;;13.20;99.90;;;;;;4886560;29;20045;-83
2022/04/23 01:38:25;;;;;;;15.75;8.57;;;13.30;99.90;;;;;;4887482;29;20115;-85
2022/04/23 01:41:38;;;;;;;14.55;8.95;;;13.40;99.90;;;;;;4867189;29;20457;-87
2022/04/23 01:44:05;;;;;;;12.38;7.88;;;13.40;99.90;;;;;;4799093;29;20099;-82
2022/04/23 01:46:32;;;;;;;11.55;8.45;;;13.40;99.90;;;;;;4799119;29;20046;-83
2022/04/23 01:49:00;;;;;;;12.70;8.68;;;13.40;99.90;;;;;;4852081;29;20643;-84
2022/04/23 01:51:27;;;;;;;13.20;8.60;;;13.40;99.90;;;;;;4870824;29;20073;-83
2022/04/23 01:53:55;;;;;;;12.93;8.05;;;13.30;99.90;;;;;;4872817;29;20186;-82
2022/04/23 01:56:22;;;;;;;12.85;8.13;;;13.30;99.90;;;;;;4874935;29;20061;-81
2022/04/23 01:58:50;;;;;;;11.55;8.05;;;13.20;99.90;;;;;;4855917;29;20044;-84
2022/04/23 02:01:18;;;;;;;11.68;9.00;;;13.20;99.90;;;;;;4888919;29;20143;-86
2022/04/23 02:03:45;;;;;;;12.93;8.88;;;13.10;99.90;;;;;;4885604;29;20049;-83
2022/04/23 02:06:20;;;;;;;12.52;9.30;;;12.80;99.90;;;;;;4873882;29;20036;-86
2022/04/23 02:08:49;;;;;;;16.83;10.18;;;12.40;99.90;;;;;;4880368;29;20045;-85
2022/04/23 02:11:17;;;;;;;15.93;10.75;;;12.30;99.90;;;;;;4887616;29;20064;-84
2022/04/23 02:13:45;;;;;;;12.95;9.68;;;12.50;99.90;;;;;;4887662;29;20096;-85
2022/04/23 02:16:20;;;;;;;13.90;10.00;;;12.60;99.90;;;;;;4878669;29;20917;-84
2022/04/23 02:18:48;;;;;;;16.55;10.45;;;12.20;99.90;;;;;;4857380;29;20097;-87
2022/04/23 02:21:29;;;;;;;13.38;9.30;;;12.00;99.90;;;;;;4888355;29;20037;-84
2022/04/23 02:24:15;;;;;;;12.90;9.90;;;12.30;99.90;;;;;;4890956;29;20494;-84
2022/04/23 02:27:27;;;;;;;12.65;9.48;;;12.40;99.90;;;;;;4874969;29;20132;-85
2022/04/23 02:30:12;;;;;;;18.63;9.68;;;12.30;99.90;;;;;;4976947;23;20055;-84
2022/04/23 02:32:41;;;;;;;14.20;9.15;;;12.00;99.90;;;;;;4916721;29;20066;-85
2022/04/23 02:35:11;;;;;;;11.70;8.93;;;12.30;99.90;;;;;;4913018;29;20047;-86
2022/04/23 02:37:40;;;;;;;13.80;9.38;;;12.40;99.90;;;;;;4908327;29;20382;-85
2022/04/23 02:40:08;;;;;;;11.77;9.15;;;12.50;99.90;;;;;;4940553;29;20043;-85
2022/04/23 02:42:39;;;;;;;15.68;8.93;;;12.60;99.90;;;;;;4912741;29;20039;-83
2022/04/23 02:45:11;;;;;;;11.93;8.85;;;12.60;99.90;;;;;;4914314;29;20063;-84
2022/04/23 02:47:57;;;;;;;13.65;9.00;;;12.40;99.90;;;;;;4926984;29;20127;-85
2022/04/23 02:50:30;;;;;;;12.00;8.70;;;12.30;99.90;;;;;;4912481;29;20055;-84
2022/04/23 02:53:01;;;;;;;12.05;8.38;;;12.30;99.90;;;;;;4911106;29;20131;-85
2022/04/23 02:55:55;;;;;;;13.55;8.90;;;12.30;99.90;;;;;;4927604;29;20043;-85
2022/04/23 02:58:50;;;;;;;12.30;8.82;;;12.20;99.90;;;;;;4928856;29;20035;-85
2022/04/23 03:01:22;;;;;;;13.88;9.88;;;12.50;99.90;;;;;;4928207;29;20114;-86
2022/04/23 03:03:54;;;;;;;14.35;8.68;;;12.40;99.90;;;;;;4925574;29;20085;-85
2022/04/23 03:06:54;;;;;;;12.63;8.32;;;12.50;99.90;;;;;;4927284;29;20058;-85
2022/04/23 03:09:22;;;;;;;15.57;8.75;;;12.10;99.90;;;;;;4943820;29;20095;-87
2022/04/23 03:11:49;;;;;;;12.50;8.68;;;12.00;99.90;;;;;;4913796;29;20059;-87
2022/04/23 03:15:05;;;;;;;;;;;;;;;;;;;;;
2022/04/23 03:18:13;;;;;;;10.90;8.23;;;12.40;99.90;;;;;;4924925;29;20489;-84
2022/04/23 03:21:02;;;;;;;11.38;7.78;;;12.50;99.90;;;;;;4927597;29;20051;-87
2022/04/23 03:23:30;;;;;;;12.05;7.90;;;12.40;99.90;;;;;;4910698;29;20098;-88
2022/04/23 03:25:59;;;;;;;10.43;8.00;;;12.20;99.90;;;;;;4927340;29;20077;-86
2022/04/23 03:28:36;;;;;;;16.25;8.30;;;12.40;99.90;;;;;;4907432;29;20035;-84
2022/04/23 03:31:06;;;;;;;14.30;7.88;;;12.20;99.90;;;;;;4923909;29;20059;-84
2022/04/23 03:33:34;;;;;;;12.45;8.30;;;12.20;99.90;;;;;;4922783;29;20417;-87
2022/04/23 03:36:05;;;;;;;12.13;8.02;;;12.00;99.90;;;;;;4923953;29;20357;-86
2022/04/23 03:38:35;;;;;;;12.65;8.60;;;12.20;99.90;;;;;;4906529;29;20423;-85
2022/04/23 03:41:03;;;;;;;12.23;8.27;;;12.40;99.90;;;;;;4905665;29;20044;-83
2022/04/23 03:43:32;;;;;;;10.35;8.00;;;12.50;99.90;;;;;;4906100;29;20036;-84
2022/04/23 03:46:16;;;;;;;11.98;7.80;;;12.40;99.90;;;;;;4898212;29;20063;-84
2022/04/23 03:48:43;;;;;;;12.35;8.88;;;12.30;99.90;;;;;;4922817;29;20102;-82
2022/04/23 03:51:36;;;;;;;11.70;8.15;;;12.20;99.90;;;;;;4918620;29;20086;-83
2022/04/23 03:54:14;;;;;;;;;;;;;;;;;;;;;
2022/04/23 03:57:12;;;;;;;13.75;8.63;;;12.50;99.90;;;;;;4923392;29;20061;-83
2022/04/23 03:59:48;;;;;;;;;;;12.60;99.90;;;;;;4908116;29;20048;-82
2022/04/23 04:07:27;;;;;;;12.50;8.50;;;12.60;99.90;;;;;;4920434;29;20056;-86
2022/04/23 04:10:20;;;;;;;10.88;7.50;;;12.50;99.90;;;;;;4907292;29;20076;-85
2022/04/23 04:13:14;;;;;;;9.68;8.20;;;12.70;99.90;;;;;;4907094;29;20070;-84
2022/04/23 04:15:47;;;;;;;13.45;7.70;;;12.60;99.90;;;;;;4917849;29;20059;-84
2022/04/23 04:18:18;;;;;;;17.67;9.23;;;12.50;99.90;;;;;;4921210;29;20062;-84
2022/04/23 04:21:57;;;;;;;;;;;;;;;;;;;;;
2022/04/23 04:28:46;;;;;;;10.70;7.90;;;12.70;99.90;;;;;;4863881;29;20055;-84
2022/04/23 04:34:02;;;;;;;17.15;9.55;;;12.00;99.90;;;;;;4864855;29;20050;-85
2022/04/23 04:36:30;;;;;;;11.25;9.23;;;11.80;99.90;;;;;;4834378;29;20072;-85
2022/04/23 04:39:03;;;;;;;12.93;9.05;;;11.80;99.90;;;;;;4861650;29;20129;-87
2022/04/23 04:41:31;;;;;;;12.02;8.75;;;11.90;99.90;;;;;;4858483;29;20065;-87
2022/04/23 04:47:59;;;;;;;19.90;9.10;;;12.20;99.90;;;;;;4848063;29;20029;-87
2022/04/23 04:51:08;;;;;;;13.85;8.48;;;12.20;99.90;;;;;;4761465;30;20084;-86
2022/04/23 04:58:40;;;;;;;11.95;8.70;;;12.30;99.90;;;;;;5132847;23;20131;-86
2022/04/23 05:05:10;;;;;;;13.48;8.20;;;12.80;99.90;;;;;;5486680;23;20047;-86
2022/04/23 05:07:45;;;;;;;11.70;7.97;;;12.90;99.90;;;;;;4905168;29;20052;-82
2022/04/23 05:10:12;;;;;;;10.13;7.85;;;13.00;99.90;;;;;;4907811;29;20138;-83
2022/04/23 05:12:39;;;;;;;13.13;8.23;;;12.90;99.90;;;;;;4909305;29;20059;-83
2022/04/23 05:15:11;;;;;;;16.48;8.52;;;13.00;99.90;;;;;;4909794;29;20036;-80
2022/04/23 05:17:39;;;;;;;11.32;8.23;;;13.10;99.90;;;;;;4910033;29;20043;-85
2022/04/23 05:20:07;;;;;;;13.10;7.38;;;13.20;99.90;;;;;;4909959;29;20051;-85
2022/04/23 05:22:42;;;;;;;11.45;8.00;;;13.30;99.90;;;;;;4894602;29;20426;-84
2022/04/23 05:25:10;;;;;;;14.77;7.80;;;13.30;99.90;;;;;;4922819;29;20052;-83
2022/04/23 05:31:08;;;;;;;10.90;7.57;;;13.30;99.90;;;;;;4924736;29;20044;-84
2022/04/23 05:33:36;;;;;;;12.77;8.15;;;13.40;99.90;;;;;;4912361;29;20431;-84
2022/04/23 05:36:06;;;;;;;14.98;8.48;;;13.40;99.90;;;;;;4908615;29;20036;-83
2022/04/23 05:38:38;;;;;;;15.23;8.13;;;13.30;99.90;;;;;;4905882;29;20075;-82
2022/04/23 05:41:07;;;;;;;12.48;8.32;;;13.30;99.90;;;;;;4924102;29;20543;-81
2022/04/23 05:44:03;;;;;;;15.18;7.85;;;13.40;99.90;;;;;;4927537;29;20048;-85
2022/04/23 05:46:54;;;;;;;12.20;7.90;;;13.40;99.90;;;;;;4891691;29;20051;-82
2022/04/23 05:49:21;;;;;;;12.27;8.02;;;13.40;99.90;;;;;;4923563;29;20079;-81
2022/04/23 05:52:10;;;;;;;12.48;8.70;;;13.50;99.90;;;;;;4928757;29;20043;-82
2022/04/23 05:54:37;;;;;;;12.40;7.65;;;13.50;99.90;;;;;;4925405;29;20074;-80
2022/04/23 05:57:05;;;;;;;12.48;8.13;;;13.60;99.90;;;;;;4892580;29;20047;-80
2022/04/23 05:59:33;;;;;;;10.77;8.82;;;13.70;99.90;;;;;;4909924;29;20492;-84
2022/04/23 06:02:00;;;;;;;13.98;7.90;;;13.90;99.90;;;;;;4922118;29;20040;-82
2022/04/23 06:04:29;;;;;;;15.07;8.15;;;13.90;99.90;;;;;;4887531;29;20087;-84
2022/04/23 06:06:57;;;;;;;11.32;8.40;;;14.00;99.90;;;;;;4891509;29;20075;-85
2022/04/23 06:09:57;;;;;;;11.73;7.85;;;14.00;99.90;;;;;;4905532;29;20039;-85
2022/04/23 06:12:28;;;;;;;9.32;7.18;;;14.00;99.90;;;;;;4908635;29;20037;-85
2022/04/23 06:15:06;;;;;;;12.20;7.53;;;14.00;99.90;;;;;;4910609;29;20079;-82
2022/04/23 06:18:01;;;;;;;61.00;39.00;;;14.00;99.90;;;;;;4908855;29;20409;-79
2022/04/23 06:20:28;;;;;;;55.75;38.17;;;14.10;99.90;;;;;;4917607;29;20461;-79
2022/04/23 06:22:55;;;;;;;97.85;60.67;;;14.20;99.90;;;;;;4917024;29;20132;-81
2022/04/23 06:25:23;;;;;;;76.30;51.13;;;14.30;99.90;;;;;;4901605;29;20793;-82
2022/04/23 06:27:50;;;;;;;96.43;59.75;;;14.40;99.90;;;;;;4900807;29;20135;-82
2022/04/23 06:30:20;;;;;;;126.43;80.50;;;14.50;99.90;;;;;;4921289;29;20056;-86
2022/04/23 06:32:50;;;;;;;65.50;45.60;;;14.70;99.90;;;;;;4901494;29;20052;-84
2022/04/23 06:35:20;;;;;;;34.33;23.92;;;14.70;99.90;;;;;;4901471;29;20119;-83
2022/04/23 06:38:25;;;;;;;;;;;;;;;;;;;;;
2022/04/23 06:40:55;;;;;;;45.60;32.33;;;14.70;99.90;;;;;;4898821;29;20574;-84
2022/04/23 06:43:23;;;;;;;68.47;47.40;;;14.70;99.90;;;;;;4902153;29;20455;-82
2022/04/23 06:45:50;;;;;;;64.63;45.42;;;14.90;99.90;;;;;;4902232;29;20747;-83
2022/04/23 06:48:21;;;;;;;74.82;49.97;;;15.00;99.90;;;;;;4908998;29;20205;-84
2022/04/23 06:51:06;;;;;;;19.45;12.05;;;15.00;99.90;;;;;;4918383;29;20106;-82
2022/04/23 07:01:20;;;;;;;12.00;7.32;;;15.00;99.90;;;;;;4915474;29;20111;-85
2022/04/23 07:04:00;;;;;;;12.35;7.88;;;15.00;99.90;;;;;;4904151;29;20750;-84
2022/04/23 07:10:55;;;;;;;13.73;7.15;;;15.10;99.90;;;;;;4827367;29;20136;-84
2022/04/23 07:27:45;;;;;;;12.05;7.68;;;15.30;99.90;;;;;;4962357;28;20076;-81
2022/04/23 07:30:12;;;;;;;11.73;6.68;;;15.40;99.90;;;;;;4929182;28;20067;-85
2022/04/23 07:32:43;;;;;;;14.70;6.95;;;15.50;99.90;;;;;;4944651;28;20050;-90
2022/04/23 07:42:06;;;;;;;12.23;6.93;;;15.60;99.90;;;;;;4848733;29;20121;-88
2022/04/23 07:44:36;;;;;;;12.88;8.32;;;15.70;99.90;;;;;;4964413;28;20446;-86
2022/04/23 07:47:21;;;;;;;12.50;6.53;;;15.60;99.90;;;;;;4946056;28;20038;-84
2022/04/23 07:49:49;;;;;;;11.02;6.43;;;15.70;99.90;;;;;;4944760;28;22025;-91
2022/04/23 07:52:17;;;;;;;15.40;6.70;;;15.70;99.90;;;;;;4962434;28;20081;-93
2022/04/23 07:54:45;;;;;;;9.50;5.80;;;15.90;99.90;;;;;;4947281;28;20089;-91
2022/04/23 07:57:22;;;;;;;11.25;6.35;;;15.90;99.90;;;;;;4963869;28;20113;-86
2022/04/23 08:00:03;;;;;;;8.73;6.13;;;15.90;99.90;;;;;;4945075;28;20092;-85
2022/04/23 08:06:50;;;;;;;14.95;6.00;;;15.90;99.90;;;;;;4967911;23;20066;-87
2022/04/23 08:09:20;;;;;;;11.75;6.30;;;16.10;99.90;;;;;;4939796;28;20071;-89
2022/04/23 08:11:49;;;;;;;9.05;5.85;;;16.00;99.90;;;;;;4953401;28;20066;-86
2022/04/23 08:14:58;;;;;;;10.38;5.35;;;16.10;99.90;;;;;;4881831;29;20044;-89
2022/04/23 08:17:33;;;;;;;10.82;6.03;;;16.30;99.90;;;;;;4863851;29;20442;-88
2022/04/23 08:23:37;;;;;;;8.60;5.28;;;16.50;99.90;;;;;;4924662;29;20411;-88
2022/04/23 08:26:10;;;;;;;7.80;5.47;;;16.60;99.90;;;;;;4925932;29;20095;-88
2022/04/23 08:33:08;;;;;;;12.52;4.18;;;16.70;99.90;;;;;;4928009;29;20116;-88
2022/04/23 08:36:09;;;;;;;10.25;4.57;;;16.90;99.90;;;;;;4922111;29;20052;-85
2022/04/23 08:38:42;;;;;;;10.02;5.15;;;17.00;99.90;;;;;;4922928;29;20047;-82
2022/04/23 08:41:13;;;;;;;8.00;4.85;;;17.00;99.90;;;;;;4923654;29;20043;-82
2022/04/23 08:48:04;;;;;;;8.02;5.03;;;17.20;99.90;;;;;;4919403;29;20034;-81
2022/04/23 08:50:38;;;;;;;13.00;5.10;;;17.40;99.90;;;;;;4926861;29;20098;-81
2022/04/23 08:53:18;;;;;;;10.00;5.53;;;17.50;99.90;;;;;;4910292;29;20078;-82
2022/04/23 08:56:00;;;;;;;9.23;4.65;;;17.60;99.90;;;;;;4928056;29;20047;-86
2022/04/23 08:58:28;;;;;;;7.07;4.47;;;17.50;99.90;;;;;;4930022;29;20646;-81
2022/04/23 09:00:55;;;;;;;8.43;5.00;;;17.70;99.90;;;;;;4940436;29;20560;-83
2022/04/23 09:03:23;;;;;;;9.05;4.65;;;17.80;99.90;;;;;;4910251;29;20098;-83
2022/04/23 09:05:52;;;;;;;7.38;4.63;;;17.80;99.90;;;;;;4943008;29;20384;-83
2022/04/23 09:08:19;;;;;;;24.50;16.33;;;18.00;99.90;;;;;;4932066;29;20052;-80
2022/04/23 09:10:54;;;;;;;42.15;28.20;;;18.10;99.90;;;;;;4938737;29;20102;-80
2022/04/23 09:13:30;;;;;;;12.15;8.82;;;18.00;99.90;;;;;;4923478;29;20138;-83
2022/04/23 09:26:30;;;;;;;9.02;4.68;;;18.70;99.90;;;;;;4851335;29;20064;-86
2022/04/23 09:29:40;;;;;;;14.50;4.75;;;19.00;99.90;;;;;;4915142;29;20507;-93
2022/04/23 09:33:00;;;;;;;11.50;4.93;;;18.90;99.90;;;;;;4892587;29;20036;-87
2022/04/23 09:48:30;;;;;;;10.32;4.60;;;19.30;98.50;;;;;;5606095;23;20485;-87
2022/04/23 09:56:10;;;;;;;47.47;28.45;;;19.40;99.80;;;;;;5174797;23;20036;-87
2022/04/23 10:03:44;;;;;;;79.20;49.67;;;19.90;99.30;;;;;;4930705;28;20644;-83
2022/04/23 10:06:32;;;;;;;189.13;117.90;;;19.80;99.90;;;;;;4959995;28;20039;-81
2022/04/23 10:09:06;;;;;;;13.02;10.23;;;19.70;99.20;;;;;;4943571;28;20043;-82
2022/04/23 10:11:38;;;;;;;11.13;5.30;;;19.70;98.50;;;;;;4964146;28;20051;-80
2022/04/23 10:14:06;;;;;;;7.57;4.20;;;19.60;97.90;;;;;;4964556;28;20047;-85
2022/04/23 10:16:35;;;;;;;13.15;5.45;;;19.50;98.40;;;;;;4947003;28;20034;-83
2022/04/23 10:19:03;;;;;;;10.00;4.32;;;19.60;97.80;;;;;;4929369;29;20122;-83
2022/04/23 10:22:09;;;;;;;9.73;4.40;;;19.60;97.80;;;;;;4919433;29;20278;-87
2022/04/23 10:25:22;;;;;;;14.35;4.70;;;19.70;97.50;;;;;;4931293;29;20047;-84
2022/04/23 10:27:54;;;;;;;7.03;3.60;;;19.90;96.80;;;;;;4912368;29;20439;-89
2022/04/23 10:30:21;;;;;;;11.60;3.65;;;20.00;96.60;;;;;;4913350;29;20063;-86
2022/04/23 10:33:25;;;;;;;11.63;4.45;;;20.00;96.30;;;;;;4944172;29;20133;-88
2022/04/23 10:36:09;;;;;;;6.47;3.60;;;20.20;95.80;;;;;;4928194;29;20199;-85
2022/04/23 10:38:42;;;;;;;9.15;3.80;;;20.30;95.50;;;;;;4926385;29;20055;-84
2022/04/23 10:41:13;;;;;;;18.83;11.15;;;20.40;95.10;;;;;;4913889;29;20061;-82
2022/04/23 10:44:06;;;;;;;14.95;8.30;;;20.30;94.80;;;;;;4950332;29;20039;-85
2022/04/23 10:46:51;;;;;;;27.33;19.73;;;20.40;94.60;;;;;;4909213;29;20091;-84
2022/04/23 10:49:25;;;;;;;14.77;5.50;;;20.30;94.60;;;;;;4911914;29;20043;-80
2022/04/23 10:51:53;;;;;;;13.57;5.50;;;20.50;93.30;;;;;;4927590;29;20035;-81
2022/04/23 11:02:23;;;;;;;15.45;6.93;;;20.60;93.60;;;;;;4963064;28;20226;-87
2022/04/23 11:13:08;;;;;;;21.35;11.20;;;20.80;93.50;;;;;;4939616;28;20118;-83
2022/04/23 11:16:22;;;;;;;15.70;7.90;;;21.00;93.20;;;;;;4933606;28;20175;-80
2022/04/23 11:23:28;;;;;;;109.50;65.32;;;21.20;91.20;;;;;;4937964;29;20077;-85
2022/04/23 11:26:56;;;;;;;18.33;11.75;;;21.20;91.90;;;;;;4945828;29;20052;-84
2022/04/23 11:29:25;;;;;;;51.53;30.05;;;21.10;89.10;;;;;;4905938;29;20075;-81
2022/04/23 11:31:57;;;;;;;112.28;72.43;;;21.00;90.20;;;;;;4919079;29;20166;-82
2022/04/23 11:34:27;;;;;;;27.00;14.18;;;21.10;90.30;;;;;;4928387;29;20036;-82
2022/04/23 11:36:56;;;;;;;13.27;5.95;;;21.20;90.50;;;;;;4927786;29;20110;-82
2022/04/23 11:39:30;;;;;;;9.43;4.28;;;21.40;90.30;;;;;;4923504;29;20521;-83
2022/04/23 11:42:59;;;;;;;13.05;5.47;;;21.70;87.70;;;;;;4879718;29;20505;-86
2022/04/23 11:46:15;;;;;;;30.13;19.15;;;21.70;86.40;;;;;;4810769;29;20046;-85
2022/04/23 11:49:36;;;;;;;43.03;29.92;;;21.80;85.30;;;;;;4817168;29;20116;-83
2022/04/23 11:52:12;;;;;;;;;;;21.70;85.50;;;;;;4832049;29;20715;-82
2022/04/23 11:54:42;;;;;;;16.52;8.65;;;22.00;85.90;;;;;;4920540;29;19923;-84
2022/04/23 11:57:15;;;;;;;11.93;4.70;;;22.20;84.10;;;;;;4900005;29;20500;-80
2022/04/23 11:59:51;;;;;;;;;;;22.20;84.90;;;;;;4908991;29;20102;-88
2022/04/23 12:02:30;;;;;;;16.70;8.13;;;22.00;83.90;;;;;;4925626;29;19966;-84
2022/04/23 12:05:00;;;;;;;7.40;3.80;;;21.90;88.30;;;;;;4941150;29;20105;-84
2022/04/23 12:07:52;;;;;;;10.48;4.03;;;21.80;82.60;;;;;;4908816;29;20147;-85
2022/04/23 12:14:18;;;;;;;14.68;5.07;;;21.20;82.60;;;;;;4922893;29;20040;-86
2022/04/23 12:16:46;;;;;;;10.73;4.05;;;21.10;82.60;;;;;;4906489;29;20043;-82
2022/04/23 12:19:37;;;;;;;10.68;4.13;;;21.10;81.90;;;;;;4925133;29;20102;-85
2022/04/23 12:22:05;;;;;;;12.90;5.18;;;21.10;82.80;;;;;;4945154;29;20101;-85
2022/04/23 12:24:40;;;;;;;65.50;42.85;;;21.20;85.30;;;;;;4926742;29;20051;-84
2022/04/23 12:27:13;;;;;;;76.22;51.33;;;21.20;85.30;;;;;;4925511;29;20051;-85
2022/04/23 12:41:13;;;;;;;10.52;2.70;;;21.20;79.20;;;;;;4941697;29;20043;-84
2022/04/23 12:43:43;;;;;;;8.43;3.33;;;21.10;77.60;;;;;;4924198;29;20648;-82
2022/04/23 12:46:11;;;;;;;7.88;3.00;;;21.10;77.40;;;;;;4940138;29;20043;-81
2022/04/23 12:48:56;;;;;;;9.13;3.03;;;21.10;76.70;;;;;;4923738;29;20043;-83
2022/04/23 12:51:24;;;;;;;9.60;3.30;;;21.00;75.50;;;;;;4924117;29;20079;-87
2022/04/23 12:54:21;;;;;;;8.27;3.00;;;21.00;74.80;;;;;;4928035;29;20047;-88
2022/04/23 12:56:52;;;;;;;8.38;3.40;;;21.10;75.40;;;;;;4926611;29;20051;-84
2022/04/23 12:59:19;;;;;;;7.80;3.10;;;21.20;75.00;;;;;;4939446;29;20062;-83
2022/04/23 13:01:46;;;;;;;8.25;2.80;;;21.30;75.00;;;;;;4942148;29;20078;-83
2022/04/23 13:04:16;;;;;;;8.57;3.03;;;21.70;73.50;;;;;;4940489;29;20066;-85
2022/04/23 13:09:34;;;;;;;8.30;4.13;;;21.70;73.30;;;;;;4908006;29;20051;-83
2022/04/23 13:12:02;;;;;;;9.30;2.90;;;21.80;73.80;;;;;;4909308;29;20455;-84
2022/04/23 13:14:29;;;;;;;8.43;2.95;;;21.80;72.90;;;;;;4943642;29;20471;-88
2022/04/23 13:17:01;;;;;;;9.95;4.30;;;21.80;72.80;;;;;;4910713;29;20060;-87
2022/04/23 13:20:55;;;;;;;12.43;2.88;;;21.80;73.00;;;;;;4894449;29;20044;-85
2022/04/23 13:23:22;;;;;;;9.38;3.00;;;21.70;71.40;;;;;;4923530;29;20099;-83
2022/04/23 13:25:57;;;;;;;6.47;2.47;;;21.80;72.10;;;;;;4927171;29;20372;-87
2022/04/23 13:28:29;;;;;;;8.70;3.45;;;21.80;70.30;;;;;;4929639;29;20059;-88
2022/04/23 13:31:15;;;;;;;8.07;3.08;;;21.90;72.70;;;;;;4938752;28;20059;-85
2022/04/23 13:33:43;;;;;;;9.05;2.40;;;21.90;72.00;;;;;;4930804;29;20052;-87
2022/04/23 13:36:26;;;;;;;9.38;2.63;;;22.30;70.60;;;;;;4911751;29;20047;-85
2022/04/23 13:39:58;;;;;;;7.63;2.57;;;22.90;68.50;;;;;;4921589;29;20054;-85
2022/04/23 13:43:06;;;;;;;16.10;8.70;;;24.80;63.40;;;;;;4900456;29;20597;-84
2022/04/23 13:45:35;;;;;;;54.22;42.85;;;22.90;66.40;;;;;;4884241;29;20405;-85
2022/04/23 13:48:12;;;;;;;12.30;4.78;;;22.30;68.70;;;;;;4886007;29;20510;-83
2022/04/23 13:50:40;;;;;;;11.27;5.15;;;22.20;69.20;;;;;;4896195;29;20817;-83
2022/04/23 13:53:11;;;;;;;13.27;3.47;;;22.10;70.50;;;;;;4888672;29;20049;-84
2022/04/23 13:55:39;;;;;;;7.43;2.88;;;21.90;70.10;;;;;;4905833;23;20052;-84
2022/04/23 13:58:06;;;;;;;10.38;3.38;;;21.90;70.60;;;;;;4905680;29;20099;-83
2022/04/23 14:00:37;;;;;;;7.43;3.85;;;21.80;70.70;;;;;;4907144;29;20134;-84
2022/04/23 14:11:26;;;;;;;8.05;2.90;;;21.80;70.30;;;;;;4907500;29;20047;-83
2022/04/23 14:13:56;;;;;;;7.93;2.90;;;21.90;70.50;;;;;;4905199;29;20035;-85
2022/04/23 14:16:24;;;;;;;7.75;3.15;;;21.80;70.20;;;;;;4911430;29;20426;-78
2022/04/23 14:18:51;;;;;;;6.60;2.53;;;21.80;70.90;;;;;;4883561;29;20049;-83
2022/04/23 14:21:19;;;;;;;9.25;2.97;;;21.80;71.00;;;;;;4905588;29;20379;-82
2022/04/23 14:23:46;;;;;;;9.68;3.22;;;21.80;71.10;;;;;;4894842;29;20060;-82
2022/04/23 14:26:14;;;;;;;8.32;3.15;;;21.80;71.60;;;;;;4892811;29;20044;-82
2022/04/23 14:28:44;;;;;;;16.63;11.85;;;22.00;70.80;;;;;;4890838;29;20111;-85
2022/04/23 14:31:12;;;;;;;;;;;23.20;67.90;;;;;;4890340;29;20052;-81
2022/04/23 14:33:39;;;;;;;22.83;10.40;;;23.40;67.00;;;;;;4895816;29;19927;-83
2022/04/23 14:36:48;;;;;;;10.32;3.92;;;22.90;68.70;;;;;;4895987;29;20465;-86
2022/04/23 14:43:26;;;;;;;11.02;2.85;;;22.50;68.40;;;;;;4616142;27;20044;-89
2022/04/23 14:46:05;;;;;;;9.25;2.50;;;23.40;66.20;;;;;;4887649;29;20052;-85
2022/04/23 14:49:20;;;;;;;10.20;3.03;;;22.70;67.80;;;;;;4869977;29;20063;-90
2022/04/23 14:55:00;;;;;;;7.57;3.13;;;22.00;69.80;;;;;;4885778;29;20052;-84
2022/04/23 14:57:28;;;;;;;46.75;33.45;;;21.90;70.60;;;;;;4879064;29;20052;-83
2022/04/23 15:00:14;;;;;;;28.35;16.30;;;21.90;71.70;;;;;;4886706;29;20052;-84
2022/04/23 15:03:13;;;;;;;12.05;4.03;;;21.70;70.60;;;;;;4891720;29;20104;-83
2022/04/23 15:05:42;;;;;;;7.57;3.47;;;21.60;70.80;;;;;;4887415;29;20064;-81
2022/04/23 15:08:09;;;;;;;8.48;3.03;;;21.60;71.40;;;;;;4867462;29;20056;-81
2022/04/23 15:10:37;;;;;;;11.45;3.13;;;21.60;70.70;;;;;;4900636;29;20464;-77
2022/04/23 15:13:06;;;;;;;10.15;2.67;;;21.80;72.40;;;;;;4901055;29;20089;-82
2022/04/23 15:15:34;;;;;;;12.03;3.13;;;21.70;70.60;;;;;;4884381;29;20442;-77
2022/04/23 15:18:02;;;;;;;10.32;2.95;;;21.70;71.30;;;;;;4894765;29;20111;-78
2022/04/23 15:20:29;;;;;;;12.77;3.50;;;21.70;73.00;;;;;;4880785;29;20135;-83
2022/04/23 15:22:56;;;;;;;75.93;51.15;;;21.80;72.20;;;;;;4864211;29;20128;-81
2022/04/23 15:25:24;;;;;;;108.85;83.63;;;23.50;69.20;;;;;;4868725;29;20389;-78
2022/04/23 15:27:54;;;;;;;14.40;7.95;;;23.00;68.40;;;;;;4882325;29;20051;-77
2022/04/23 15:30:26;;;;;;;12.23;3.40;;;22.60;69.20;;;;;;4877730;29;20063;-79
2022/04/23 15:32:58;;;;;;;10.38;3.10;;;22.60;70.20;;;;;;4879722;29;20449;-79
2022/04/23 15:35:28;;;;;;;8.70;2.55;;;23.20;67.70;;;;;;4896371;29;20053;-85
2022/04/23 15:37:55;;;;;;;;;;;24.40;63.90;;;;;;4879311;29;20552;-85
2022/04/23 15:40:24;;;;;;;8.35;2.65;;;23.90;64.50;;;;;;4882726;29;19982;-87
2022/04/23 15:42:53;;;;;;;9.87;2.60;;;23.50;63.70;;;;;;4881174;29;20037;-81
2022/04/23 15:45:21;;;;;;;12.05;2.55;;;23.40;64.20;;;;;;4883075;29;20048;-82
2022/04/23 15:47:53;;;;;;;46.83;37.00;;;24.40;64.30;;;;;;4881263;29;20400;-79
2022/04/23 15:50:21;;;;;;;32.95;26.20;;;24.40;65.00;;;;;;4899048;29;20103;-83
2022/04/23 15:52:49;;;;;;;18.33;10.55;;;24.00;65.50;;;;;;4896224;29;20184;-81
2022/04/23 15:55:17;;;;;;;28.13;17.58;;;23.80;65.80;;;;;;4897235;29;20053;-84
2022/04/23 15:57:46;;;;;;;10.45;4.75;;;23.30;68.30;;;;;;4898919;29;20133;-86
2022/04/23 16:00:14;;;;;;;15.35;3.88;;;23.00;67.30;;;;;;4901088;29;20036;-84
2022/04/23 16:02:41;;;;;;;13.18;4.00;;;22.60;67.70;;;;;;4903481;29;20071;-82
2022/04/23 16:05:11;;;;;;;12.80;3.50;;;22.40;67.40;;;;;;4898336;29;20062;-85
2022/04/23 16:07:38;;;;;;;15.32;4.55;;;22.80;67.50;;;;;;4903159;29;20370;-80
2022/04/23 16:10:06;;;;;;;12.40;4.00;;;23.60;64.40;;;;;;4902100;29;20815;-81
2022/04/23 16:12:35;;;;;;;14.00;4.75;;;24.10;59.50;;;;;;4885950;29;20184;-82
2022/04/23 16:15:03;;;;;;;8.47;3.23;;;24.20;59.70;;;;;;4898606;29;20069;-77
2022/04/23 16:17:49;;;;;;;5.53;1.80;;;24.50;57.90;;;;;;4896506;29;20644;-85
2022/04/23 16:20:16;;;;;;;7.25;2.10;;;24.90;57.20;;;;;;4900059;29;20036;-80
2022/04/23 16:22:44;;;;;;;3.50;1.38;;;24.90;58.30;;;;;;4883718;29;20048;-79